sensor_id;sensor_type;location;lat;lon;timestamp;P1;P4;P2;P0;N10;N4;N25;N1;N05;TS
79466;SPS30;68933;49.726;9.226;2024-03-06T00:01:01;10.4;;10.4;10;;;;;;
79466;SPS30;68933;49.726;9.226;2024-03-06T00:03:14;10.4;;10.4;10;;;;;;
79466;SPS30;68933;49.726;9.226;2024-03-06T00:05:27;10.5;;10.5;10.1;;;;;;
79466;SPS30;68933;49.726;9.226;2024-03-06T00:07:40;10.5;;10.5;10.1;;;;;;
79466;SPS30;68933;49.726;9.226;2024-03-06T00:09:53;11.8;;11.8;11.2;;;;;;
79466;SPS30;68933;49.726;9.226;2024-03-06T00:12:06;11.8;;11.8;11.2;;;;;;
79466;SPS30;68933;49.726;9.226;2024-03-06T00:14:19;11.8;;11.8;11.3;;;;;;
79466;SPS30;68933;49.726;9.226;2024-03-06T00:16:32;11.8;;11.8;11.3;;;;;;
79466;SPS30;68933;49.726;9.226;2024-03-06T00:18:45;11.8;;11.8;11.3;;;;;;
79466;SPS30;68933;49.726;9.226;2024-03-06T00:20:58;10.8;;10.8;10.3;;;;;;
79466;SPS30;68933;49.726;9.226;2024-03-06T00:23:11;10.8;;10.8;10.3;;;;;;
79466;SPS30;68933;49.726;9.226;2024-03-06T00:33:23;11.6;;11.6;11;;;;;;
79466;SPS30;68933;49.726;9.226;2024-03-06T00:35:35;12.3;;12.3;11.7;;;;;;
79466;SPS30;68933;49.726;9.226;2024-03-06T00:37:48;12.3;;12.3;11.7;;;;;;
79466;SPS30;68933;49.726;9.226;2024-03-06T00:40:02;12.8;;12.8;12.2;;;;;;
79466;SPS30;68933;49.726;9.226;2024-03-06T00:42:14;12.8;;12.8;12.2;;;;;;
79466;SPS30;68933;49.726;9.226;2024-03-06T00:44:27;12.2;;12.2;11.6;;;;;;
79466;SPS30;68933;49.726;9.226;2024-03-06T00:46:40;12.2;;12.2;11.6;;;;;;
79466;SPS30;68933;49.726;9.226;2024-03-06T00:48:53;11.4;;11.4;10.9;;;;;;
79466;SPS30;68933;49.726;9.226;2024-03-06T00:51:06;11.4;;11.4;10.9;;;;;;
79466;SPS30;68933;49.726;9.226;2024-03-06T00:53:19;10.1;;10.1;9.6;;;;;;
79466;SPS30;68933;49.726;9.226;2024-03-06T00:55:32;10.1;;10.1;9.6;;;;;;
79466;SPS30;68933;49.726;9.226;2024-03-06T00:57:45;10.1;;10.1;9.6;;;;;;
79466;SPS30;68933;49.726;9.226;2024-03-06T00:59:58;9.5;;9.5;9.1;;;;;;
79466;SPS30;68933;49.726;9.226;2024-03-06T01:02:11;9.5;;9.5;9.1;;;;;;
79466;SPS30;68933;49.726;9.226;2024-03-06T01:04:24;9.6;;9.6;9.1;;;;;;
79466;SPS30;68933;49.726;9.226;2024-03-06T01:06:37;9.6;;9.6;9.1;;;;;;
79466;SPS30;68933;49.726;9.226;2024-03-06T01:08:50;9.7;;9.7;9.2;;;;;;
79466;SPS30;68933;49.726;9.226;2024-03-06T01:11:03;9.7;;9.7;9.2;;;;;;
79466;SPS30;68933;49.726;9.226;2024-03-06T01:13:16;8.9;;8.9;8.5;;;;;;
79466;SPS30;68933;49.726;9.226;2024-03-06T01:15:29;8.9;;8.9;8.5;;;;;;
79466;SPS30;68933;49.726;9.226;2024-03-06T01:17:42;8.9;;8.9;8.5;;;;;;
79466;SPS30;68933;49.726;9.226;2024-03-06T01:19:55;8.6;;8.6;8.2;;;;;;
79466;SPS30;68933;49.726;9.226;2024-03-06T01:22:08;8.6;;8.6;8.2;;;;;;
79466;SPS30;68933;49.726;9.226;2024-03-06T01:24:21;8.6;;8.6;8.2;;;;;;
79466;SPS30;68933;49.726;9.226;2024-03-06T01:26:34;8.6;;8.6;8.2;;;;;;
79466;SPS30;68933;49.726;9.226;2024-03-06T01:28:47;8.6;;8.6;8.2;;;;;;
79466;SPS30;68933;49.726;9.226;2024-03-06T01:31:00;7.4;;7.4;7.1;;;;;;
79466;SPS30;68933;49.726;9.226;2024-03-06T01:33:13;7.4;;7.4;7.1;;;;;;
79466;SPS30;68933;49.726;9.226;2024-03-06T01:35:26;7.3;;7.3;6.9;;;;;;
79466;SPS30;68933;49.726;9.226;2024-03-06T01:37:39;7.3;;7.3;6.9;;;;;;
79466;SPS30;68933;49.726;9.226;2024-03-06T01:39:52;7.3;;7.3;6.9;;;;;;
79466;SPS30;68933;49.726;9.226;2024-03-06T01:42:05;9.3;;9.3;8.9;;;;;;
79466;SPS30;68933;49.726;9.226;2024-03-06T01:44:18;9.3;;9.3;8.9;;;;;;
79466;SPS30;68933;49.726;9.226;2024-03-06T01:46:31;9;;9;8.6;;;;;;
79466;SPS30;68933;49.726;9.226;2024-03-06T01:48:44;9;;9;8.6;;;;;;
79466;SPS30;68933;49.726;9.226;2024-03-06T01:50:58;7.3;;7.3;7;;;;;;
79466;SPS30;68933;49.726;9.226;2024-03-06T01:53:10;7.3;;7.3;7;;;;;;
79466;SPS30;68933;49.726;9.226;2024-03-06T01:55:23;7.3;;7.3;7;;;;;;
79466;SPS30;68933;49.726;9.226;2024-03-06T01:57:36;10;;10;9.6;;;;;;
79466;SPS30;68933;49.726;9.226;2024-03-06T01:59:49;10;;10;9.6;;;;;;
79466;SPS30;68933;49.726;9.226;2024-03-06T02:02:02;9.1;;9.1;8.7;;;;;;
79466;SPS30;68933;49.726;9.226;2024-03-06T02:04:15;9.1;;9.1;8.7;;;;;;
79466;SPS30;68933;49.726;9.226;2024-03-06T02:06:29;9.1;;9.1;8.7;;;;;;
79466;SPS30;68933;49.726;9.226;2024-03-06T02:08:41;8.5;;8.5;8.1;;;;;;
79466;SPS30;68933;49.726;9.226;2024-03-06T02:10:54;8.5;;8.5;8.1;;;;;;
79466;SPS30;68933;49.726;9.226;2024-03-06T02:13:07;8.4;;8.4;8;;;;;;
79466;SPS30;68933;49.726;9.226;2024-03-06T02:15:20;8.4;;8.4;8;;;;;;
79466;SPS30;68933;49.726;9.226;2024-03-06T02:17:33;7.8;;7.8;7.4;;;;;;
79466;SPS30;68933;49.726;9.226;2024-03-06T02:19:46;7.8;;7.8;7.4;;;;;;
79466;SPS30;68933;49.726;9.226;2024-03-06T02:21:59;7.8;;7.8;7.4;;;;;;
79466;SPS30;68933;49.726;9.226;2024-03-06T02:24:12;8.1;;8.1;7.7;;;;;;
79466;SPS30;68933;49.726;9.226;2024-03-06T02:26:25;8.1;;8.1;7.7;;;;;;
79466;SPS30;68933;49.726;9.226;2024-03-06T02:28:38;8.8;;8.8;8.4;;;;;;
79466;SPS30;68933;49.726;9.226;2024-03-06T02:30:52;8.8;;8.8;8.4;;;;;;
79466;SPS30;68933;49.726;9.226;2024-03-06T02:33:04;7.9;;7.9;7.5;;;;;;
79466;SPS30;68933;49.726;9.226;2024-03-06T02:35:17;7.9;;7.9;7.5;;;;;;
79466;SPS30;68933;49.726;9.226;2024-03-06T02:37:30;7.9;;7.9;7.5;;;;;;
79466;SPS30;68933;49.726;9.226;2024-03-06T02:39:43;7.5;;7.5;7.2;;;;;;
79466;SPS30;68933;49.726;9.226;2024-03-06T02:41:56;7.5;;7.5;7.2;;;;;;
79466;SPS30;68933;49.726;9.226;2024-03-06T02:44:09;7.6;;7.6;7.3;;;;;;
79466;SPS30;68933;49.726;9.226;2024-03-06T02:46:22;7.6;;7.6;7.3;;;;;;
79466;SPS30;68933;49.726;9.226;2024-03-06T02:48:35;7.4;;7.4;7.1;;;;;;
79466;SPS30;68933;49.726;9.226;2024-03-06T02:50:48;7.4;;7.4;7.1;;;;;;
79466;SPS30;68933;49.726;9.226;2024-03-06T02:53:01;7.2;;7.2;6.9;;;;;;
79466;SPS30;68933;49.726;9.226;2024-03-06T02:55:14;7.2;;7.2;6.9;;;;;;
79466;SPS30;68933;49.726;9.226;2024-03-06T02:57:27;7.2;;7.2;6.9;;;;;;
79466;SPS30;68933;49.726;9.226;2024-03-06T02:59:40;7.4;;7.4;7;;;;;;
79466;SPS30;68933;49.726;9.226;2024-03-06T03:01:53;7.4;;7.4;7;;;;;;
79466;SPS30;68933;49.726;9.226;2024-03-06T03:04:06;8.4;;8.4;8;;;;;;
79466;SPS30;68933;49.726;9.226;2024-03-06T03:06:19;8.4;;8.4;8;;;;;;
79466;SPS30;68933;49.726;9.226;2024-03-06T03:08:32;7.5;;7.5;7.1;;;;;;
79466;SPS30;68933;49.726;9.226;2024-03-06T03:10:45;7.5;;7.5;7.1;;;;;;
79466;SPS30;68933;49.726;9.226;2024-03-06T03:12:58;7;;7;6.7;;;;;;
79466;SPS30;68933;49.726;9.226;2024-03-06T03:15:11;7;;7;6.7;;;;;;
79466;SPS30;68933;49.726;9.226;2024-03-06T03:17:24;7;;7;6.7;;;;;;
79466;SPS30;68933;49.726;9.226;2024-03-06T03:19:37;7.9;;7.9;7.6;;;;;;
79466;SPS30;68933;49.726;9.226;2024-03-06T03:21:50;7.9;;7.9;7.6;;;;;;
79466;SPS30;68933;49.726;9.226;2024-03-06T03:24:04;8.5;;8.5;8.1;;;;;;
79466;SPS30;68933;49.726;9.226;2024-03-06T03:26:16;8.5;;8.5;8.1;;;;;;
79466;SPS30;68933;49.726;9.226;2024-03-06T03:28:29;8.3;;8.3;7.9;;;;;;
79466;SPS30;68933;49.726;9.226;2024-03-06T03:30:43;8.3;;8.3;7.9;;;;;;
79466;SPS30;68933;49.726;9.226;2024-03-06T03:32:55;9.4;;9.4;8.9;;;;;;
79466;SPS30;68933;49.726;9.226;2024-03-06T03:35:08;9.4;;9.4;8.9;;;;;;
79466;SPS30;68933;49.726;9.226;2024-03-06T03:37:21;10.1;;10.1;9.7;;;;;;
79466;SPS30;68933;49.726;9.226;2024-03-06T03:39:34;10.1;;10.1;9.7;;;;;;
79466;SPS30;68933;49.726;9.226;2024-03-06T03:41:48;10.1;;10.1;9.7;;;;;;
79466;SPS30;68933;49.726;9.226;2024-03-06T03:44:00;11.2;;11;10.3;;;;;;
79466;SPS30;68933;49.726;9.226;2024-03-06T03:46:13;11.2;;11;10.3;;;;;;
79466;SPS30;68933;49.726;9.226;2024-03-06T03:48:26;11.4;;11.4;10.8;;;;;;
79466;SPS30;68933;49.726;9.226;2024-03-06T03:50:39;11.4;;11.4;10.8;;;;;;
79466;SPS30;68933;49.726;9.226;2024-03-06T03:52:52;9.9;;9.8;9.2;;;;;;
79466;SPS30;68933;49.726;9.226;2024-03-06T03:55:06;9.9;;9.8;9.2;;;;;;
79466;SPS30;68933;49.726;9.226;2024-03-06T03:57:18;9.4;;9.4;8.9;;;;;;
79466;SPS30;68933;49.726;9.226;2024-03-06T03:59:31;9.4;;9.4;8.9;;;;;;
79466;SPS30;68933;49.726;9.226;2024-03-06T04:01:44;9.4;;9.4;8.9;;;;;;
79466;SPS30;68933;49.726;9.226;2024-03-06T04:03:57;9.3;;9.3;8.9;;;;;;
79466;SPS30;68933;49.726;9.226;2024-03-06T04:06:10;9.3;;9.3;8.9;;;;;;
79466;SPS30;68933;49.726;9.226;2024-03-06T04:08:23;10.5;;10.5;10;;;;;;
79466;SPS30;68933;49.726;9.226;2024-03-06T04:10:36;10.5;;10.5;10;;;;;;
79466;SPS30;68933;49.726;9.226;2024-03-06T04:12:49;12.4;;12.4;11.8;;;;;;
79466;SPS30;68933;49.726;9.226;2024-03-06T04:15:03;12.4;;12.4;11.8;;;;;;
79466;SPS30;68933;49.726;9.226;2024-03-06T04:17:15;11.4;;11.4;10.9;;;;;;
79466;SPS30;68933;49.726;9.226;2024-03-06T04:19:28;11.4;;11.4;10.9;;;;;;
79466;SPS30;68933;49.726;9.226;2024-03-06T04:21:41;10.3;;10.3;9.8;;;;;;
79466;SPS30;68933;49.726;9.226;2024-03-06T04:23:54;10.3;;10.3;9.8;;;;;;
79466;SPS30;68933;49.726;9.226;2024-03-06T04:26:07;11.2;;11.2;10.6;;;;;;
79466;SPS30;68933;49.726;9.226;2024-03-06T04:28:20;11.2;;11.2;10.6;;;;;;
79466;SPS30;68933;49.726;9.226;2024-03-06T04:30:33;11.2;;11.2;10.6;;;;;;
79466;SPS30;68933;49.726;9.226;2024-03-06T04:32:46;12.6;;12.6;12.1;;;;;;
79466;SPS30;68933;49.726;9.226;2024-03-06T04:34:59;12.6;;12.6;12.1;;;;;;
79466;SPS30;68933;49.726;9.226;2024-03-06T04:37:12;13.4;;13.4;12.8;;;;;;
79466;SPS30;68933;49.726;9.226;2024-03-06T04:39:25;13.4;;13.4;12.8;;;;;;
79466;SPS30;68933;49.726;9.226;2024-03-06T04:41:38;13.4;;13.4;12.8;;;;;;
79466;SPS30;68933;49.726;9.226;2024-03-06T04:43:51;12.8;;12.8;12.2;;;;;;
79466;SPS30;68933;49.726;9.226;2024-03-06T04:46:04;12.8;;12.8;12.2;;;;;;
79466;SPS30;68933;49.726;9.226;2024-03-06T04:48:17;13.7;;13.7;13;;;;;;
79466;SPS30;68933;49.726;9.226;2024-03-06T04:50:30;13.7;;13.7;13;;;;;;
79466;SPS30;68933;49.726;9.226;2024-03-06T04:52:43;13.7;;13.7;13;;;;;;
79466;SPS30;68933;49.726;9.226;2024-03-06T04:54:56;12.4;;12.3;11.8;;;;;;
79466;SPS30;68933;49.726;9.226;2024-03-06T04:57:09;12.4;;12.3;11.8;;;;;;
79466;SPS30;68933;49.726;9.226;2024-03-06T04:59:22;12.3;;12.3;11.7;;;;;;
79466;SPS30;68933;49.726;9.226;2024-03-06T05:01:35;12.3;;12.3;11.7;;;;;;
79466;SPS30;68933;49.726;9.226;2024-03-06T05:03:48;12.3;;12.3;11.7;;;;;;
79466;SPS30;68933;49.726;9.226;2024-03-06T05:06:01;12;;12;11.5;;;;;;
79466;SPS30;68933;49.726;9.226;2024-03-06T05:08:14;12;;12;11.5;;;;;;
79466;SPS30;68933;49.726;9.226;2024-03-06T05:10:27;12.5;;12.5;11.8;;;;;;
79466;SPS30;68933;49.726;9.226;2024-03-06T05:12:40;12.5;;12.5;11.8;;;;;;
79466;SPS30;68933;49.726;9.226;2024-03-06T05:14:54;12.5;;12.5;11.9;;;;;;
79466;SPS30;68933;49.726;9.226;2024-03-06T05:17:06;12.5;;12.5;11.9;;;;;;
79466;SPS30;68933;49.726;9.226;2024-03-06T05:19:19;12.5;;12.5;11.9;;;;;;
79466;SPS30;68933;49.726;9.226;2024-03-06T05:21:32;14.3;;14;13.2;;;;;;
79466;SPS30;68933;49.726;9.226;2024-03-06T05:23:45;14.3;;14;13.2;;;;;;
79466;SPS30;68933;49.726;9.226;2024-03-06T05:25:58;14.5;;14.3;13.5;;;;;;
79466;SPS30;68933;49.726;9.226;2024-03-06T05:28:11;14.5;;14.3;13.5;;;;;;
79466;SPS30;68933;49.726;9.226;2024-03-06T05:30:24;14.5;;14.3;13.5;;;;;;
79466;SPS30;68933;49.726;9.226;2024-03-06T05:32:37;14.5;;14.3;13.5;;;;;;
79466;SPS30;68933;49.726;9.226;2024-03-06T05:34:50;14.5;;14.3;13.5;;;;;;
79466;SPS30;68933;49.726;9.226;2024-03-06T05:37:03;17.5;;17.2;16.2;;;;;;
79466;SPS30;68933;49.726;9.226;2024-03-06T05:39:16;17.5;;17.2;16.2;;;;;;
79466;SPS30;68933;49.726;9.226;2024-03-06T05:41:29;20.4;;20.1;18.9;;;;;;
79466;SPS30;68933;49.726;9.226;2024-03-06T05:43:42;20.4;;20.1;18.9;;;;;;
79466;SPS30;68933;49.726;9.226;2024-03-06T05:45:55;16.7;;16.7;15.9;;;;;;
79466;SPS30;68933;49.726;9.226;2024-03-06T05:48:08;16.7;;16.7;15.9;;;;;;
79466;SPS30;68933;49.726;9.226;2024-03-06T05:50:21;16.7;;16.7;15.9;;;;;;
79466;SPS30;68933;49.726;9.226;2024-03-06T05:52:34;27.2;;27.1;25.7;;;;;;
79466;SPS30;68933;49.726;9.226;2024-03-06T05:54:47;27.2;;27.1;25.7;;;;;;
79466;SPS30;68933;49.726;9.226;2024-03-06T05:57:00;13.5;;13.4;12.6;;;;;;
79466;SPS30;68933;49.726;9.226;2024-03-06T05:59:13;13.5;;13.4;12.6;;;;;;
79466;SPS30;68933;49.726;9.226;2024-03-06T06:01:26;12.2;;12.2;11.6;;;;;;
79466;SPS30;68933;49.726;9.226;2024-03-06T06:03:39;12.2;;12.2;11.6;;;;;;
79466;SPS30;68933;49.726;9.226;2024-03-06T06:05:52;12.2;;12.2;11.6;;;;;;
79466;SPS30;68933;49.726;9.226;2024-03-06T06:08:05;15.1;;15.1;14.4;;;;;;
79466;SPS30;68933;49.726;9.226;2024-03-06T06:10:18;15.1;;15.1;14.4;;;;;;
79466;SPS30;68933;49.726;9.226;2024-03-06T06:12:31;17.3;;17.3;16.5;;;;;;
79466;SPS30;68933;49.726;9.226;2024-03-06T06:14:44;17.3;;17.3;16.5;;;;;;
79466;SPS30;68933;49.726;9.226;2024-03-06T06:16:57;12.9;;12.9;12.3;;;;;;
79466;SPS30;68933;49.726;9.226;2024-03-06T06:19:10;12.9;;12.9;12.3;;;;;;
79466;SPS30;68933;49.726;9.226;2024-03-06T06:21:23;11.3;;11.3;10.8;;;;;;
79466;SPS30;68933;49.726;9.226;2024-03-06T06:23:36;11.3;;11.3;10.8;;;;;;
79466;SPS30;68933;49.726;9.226;2024-03-06T06:25:49;11.3;;11.3;10.8;;;;;;
79466;SPS30;68933;49.726;9.226;2024-03-06T06:28:02;12.2;;12.2;11.6;;;;;;
79466;SPS30;68933;49.726;9.226;2024-03-06T06:30:16;12.2;;12.2;11.6;;;;;;
79466;SPS30;68933;49.726;9.226;2024-03-06T06:32:28;10.7;;10.7;10.2;;;;;;
79466;SPS30;68933;49.726;9.226;2024-03-06T06:34:41;10.7;;10.7;10.2;;;;;;
79466;SPS30;68933;49.726;9.226;2024-03-06T06:36:54;13.3;;13.1;12.2;;;;;;
79466;SPS30;68933;49.726;9.226;2024-03-06T06:39:07;13.3;;13.1;12.2;;;;;;
79466;SPS30;68933;49.726;9.226;2024-03-06T06:41:20;12.5;;12.5;11.9;;;;;;
79466;SPS30;68933;49.726;9.226;2024-03-06T06:43:34;12.5;;12.5;11.9;;;;;;
79466;SPS30;68933;49.726;9.226;2024-03-06T06:45:46;16.3;;16.3;15.6;;;;;;
79466;SPS30;68933;49.726;9.226;2024-03-06T06:47:59;16.3;;16.3;15.6;;;;;;
79466;SPS30;68933;49.726;9.226;2024-03-06T06:50:12;16.3;;16.3;15.6;;;;;;
79466;SPS30;68933;49.726;9.226;2024-03-06T06:52:25;13.3;;13.3;12.6;;;;;;
79466;SPS30;68933;49.726;9.226;2024-03-06T06:54:38;13.3;;13.3;12.6;;;;;;
79466;SPS30;68933;49.726;9.226;2024-03-06T06:56:51;13.9;;13.9;13.2;;;;;;
79466;SPS30;68933;49.726;9.226;2024-03-06T06:59:04;13.9;;13.9;13.2;;;;;;
79466;SPS30;68933;49.726;9.226;2024-03-06T07:01:17;15.5;;15.5;14.8;;;;;;
79466;SPS30;68933;49.726;9.226;2024-03-06T07:03:30;15.5;;15.5;14.8;;;;;;
79466;SPS30;68933;49.726;9.226;2024-03-06T07:05:43;15.7;;15.5;14.7;;;;;;
79466;SPS30;68933;49.726;9.226;2024-03-06T07:07:56;15.7;;15.5;14.7;;;;;;
79466;SPS30;68933;49.726;9.226;2024-03-06T07:10:09;15;;15;14.3;;;;;;
79466;SPS30;68933;49.726;9.226;2024-03-06T07:12:23;15;;15;14.3;;;;;;
79466;SPS30;68933;49.726;9.226;2024-03-06T07:14:36;14.7;;14.6;13.9;;;;;;
79466;SPS30;68933;49.726;9.226;2024-03-06T07:16:48;14.7;;14.6;13.9;;;;;;
79466;SPS30;68933;49.726;9.226;2024-03-06T07:19:01;14.7;;14.6;13.9;;;;;;
79466;SPS30;68933;49.726;9.226;2024-03-06T07:21:14;20.8;;20.5;19.4;;;;;;
79466;SPS30;68933;49.726;9.226;2024-03-06T07:23:27;20.8;;20.5;19.4;;;;;;
79466;SPS30;68933;49.726;9.226;2024-03-06T07:25:40;24.1;;23.2;21.4;;;;;;
79466;SPS30;68933;49.726;9.226;2024-03-06T07:27:53;24.1;;23.2;21.4;;;;;;
79466;SPS30;68933;49.726;9.226;2024-03-06T07:30:07;24.1;;23.2;21.4;;;;;;
79466;SPS30;68933;49.726;9.226;2024-03-06T07:32:19;23.6;;22.7;21;;;;;;
79466;SPS30;68933;49.726;9.226;2024-03-06T07:34:32;23.6;;22.7;21;;;;;;
79466;SPS30;68933;49.726;9.226;2024-03-06T07:36:45;31.5;;30.4;28.2;;;;;;
79466;SPS30;68933;49.726;9.226;2024-03-06T07:38:58;31.5;;30.4;28.2;;;;;;
79466;SPS30;68933;49.726;9.226;2024-03-06T07:41:11;31.5;;30.4;28.2;;;;;;
79466;SPS30;68933;49.726;9.226;2024-03-06T07:43:24;22.9;;22.1;20.5;;;;;;
79466;SPS30;68933;49.726;9.226;2024-03-06T07:45:37;22.9;;22.1;20.5;;;;;;
79466;SPS30;68933;49.726;9.226;2024-03-06T07:47:50;26.5;;24.5;21.9;;;;;;
79466;SPS30;68933;49.726;9.226;2024-03-06T07:50:04;26.5;;24.5;21.9;;;;;;
79466;SPS30;68933;49.726;9.226;2024-03-06T07:52:16;20.6;;20.5;19.4;;;;;;
79466;SPS30;68933;49.726;9.226;2024-03-06T07:54:29;20.6;;20.5;19.4;;;;;;
79466;SPS30;68933;49.726;9.226;2024-03-06T07:56:42;20.6;;20.5;19.4;;;;;;
79466;SPS30;68933;49.726;9.226;2024-03-06T07:58:55;18.3;;18.2;17.3;;;;;;
79466;SPS30;68933;49.726;9.226;2024-03-06T08:01:08;18.3;;18.2;17.3;;;;;;
79466;SPS30;68933;49.726;9.226;2024-03-06T08:03:21;13;;12.9;12.3;;;;;;
79466;SPS30;68933;49.726;9.226;2024-03-06T08:05:34;13;;12.9;12.3;;;;;;
79466;SPS30;68933;49.726;9.226;2024-03-06T08:07:47;13;;12.9;12.3;;;;;;
79466;SPS30;68933;49.726;9.226;2024-03-06T08:10:00;14.6;;14.3;13.5;;;;;;
79466;SPS30;68933;49.726;9.226;2024-03-06T08:12:13;14.6;;14.3;13.5;;;;;;
79466;SPS30;68933;49.726;9.226;2024-03-06T08:14:26;12.5;;12.5;11.9;;;;;;
79466;SPS30;68933;49.726;9.226;2024-03-06T08:16:39;12.5;;12.5;11.9;;;;;;
79466;SPS30;68933;49.726;9.226;2024-03-06T08:18:52;19.3;;18.9;17.8;;;;;;
79466;SPS30;68933;49.726;9.226;2024-03-06T08:21:05;19.3;;18.9;17.8;;;;;;
79466;SPS30;68933;49.726;9.226;2024-03-06T08:23:18;19.3;;18.9;17.8;;;;;;
79466;SPS30;68933;49.726;9.226;2024-03-06T08:25:31;16.7;;16.6;15.9;;;;;;
79466;SPS30;68933;49.726;9.226;2024-03-06T08:27:44;16.7;;16.6;15.9;;;;;;
79466;SPS30;68933;49.726;9.226;2024-03-06T08:29:57;16.9;;16.9;16.1;;;;;;
79466;SPS30;68933;49.726;9.226;2024-03-06T08:32:11;16.9;;16.9;16.1;;;;;;
79466;SPS30;68933;49.726;9.226;2024-03-06T08:34:23;16.9;;16.9;16.1;;;;;;
79466;SPS30;68933;49.726;9.226;2024-03-06T08:36:36;19.6;;19.3;18.1;;;;;;
79466;SPS30;68933;49.726;9.226;2024-03-06T08:38:49;19.6;;19.3;18.1;;;;;;
79466;SPS30;68933;49.726;9.226;2024-03-06T08:41:02;19.9;;19.7;18.6;;;;;;
79466;SPS30;68933;49.726;9.226;2024-03-06T08:43:15;19.9;;19.7;18.6;;;;;;
79466;SPS30;68933;49.726;9.226;2024-03-06T08:45:28;19.6;;19.4;18.3;;;;;;
79466;SPS30;68933;49.726;9.226;2024-03-06T08:47:41;19.6;;19.4;18.3;;;;;;
79466;SPS30;68933;49.726;9.226;2024-03-06T08:49:54;19.6;;19.4;18.3;;;;;;
79466;SPS30;68933;49.726;9.226;2024-03-06T08:52:07;25.4;;25.2;23.9;;;;;;
79466;SPS30;68933;49.726;9.226;2024-03-06T08:54:20;25.4;;25.2;23.9;;;;;;
79466;SPS30;68933;49.726;9.226;2024-03-06T08:56:33;22.9;;22.7;21.5;;;;;;
79466;SPS30;68933;49.726;9.226;2024-03-06T08:58:46;22.9;;22.7;21.5;;;;;;
79466;SPS30;68933;49.726;9.226;2024-03-06T09:00:59;20.4;;20.4;19.4;;;;;;
79466;SPS30;68933;49.726;9.226;2024-03-06T09:03:12;20.4;;20.4;19.4;;;;;;
79466;SPS30;68933;49.726;9.226;2024-03-06T09:05:25;19.9;;19.8;18.7;;;;;;
79466;SPS30;68933;49.726;9.226;2024-03-06T09:07:39;19.9;;19.8;18.7;;;;;;
79466;SPS30;68933;49.726;9.226;2024-03-06T09:09:52;19.9;;19.8;18.7;;;;;;
79466;SPS30;68933;49.726;9.226;2024-03-06T09:12:05;23.6;;23.3;21.9;;;;;;
79466;SPS30;68933;49.726;9.226;2024-03-06T09:14:17;23.6;;23.3;21.9;;;;;;
79466;SPS30;68933;49.726;9.226;2024-03-06T09:16:30;21.8;;21.7;20.6;;;;;;
79466;SPS30;68933;49.726;9.226;2024-03-06T09:18:43;21.8;;21.7;20.6;;;;;;
79466;SPS30;68933;49.726;9.226;2024-03-06T09:20:56;21.4;;21.2;20;;;;;;
79466;SPS30;68933;49.726;9.226;2024-03-06T09:23:09;21.4;;21.2;20;;;;;;
79466;SPS30;68933;49.726;9.226;2024-03-06T09:25:22;24;;23.5;22.1;;;;;;
79466;SPS30;68933;49.726;9.226;2024-03-06T09:27:35;24;;23.5;22.1;;;;;;
79466;SPS30;68933;49.726;9.226;2024-03-06T09:29:48;24;;23.5;22.1;;;;;;
79466;SPS30;68933;49.726;9.226;2024-03-06T09:32:01;23;;22.7;21.3;;;;;;
79466;SPS30;68933;49.726;9.226;2024-03-06T09:34:14;23;;22.7;21.3;;;;;;
79466;SPS30;68933;49.726;9.226;2024-03-06T09:36:27;22.8;;22.1;20.6;;;;;;
79466;SPS30;68933;49.726;9.226;2024-03-06T09:38:40;22.8;;22.1;20.6;;;;;;
79466;SPS30;68933;49.726;9.226;2024-03-06T09:40:55;23.5;;23;21.5;;;;;;
79466;SPS30;68933;49.726;9.226;2024-03-06T09:43:06;23.5;;23;21.5;;;;;;
79466;SPS30;68933;49.726;9.226;2024-03-06T09:45:19;21.9;;21.6;20.3;;;;;;
79466;SPS30;68933;49.726;9.226;2024-03-06T09:47:32;21.9;;21.6;20.3;;;;;;
79466;SPS30;68933;49.726;9.226;2024-03-06T09:49:45;21.9;;21.6;20.3;;;;;;
79466;SPS30;68933;49.726;9.226;2024-03-06T09:51:58;21.8;;21.5;20.2;;;;;;
79466;SPS30;68933;49.726;9.226;2024-03-06T09:54:12;21.8;;21.5;20.2;;;;;;
79466;SPS30;68933;49.726;9.226;2024-03-06T09:56:25;23.8;;23.2;21.7;;;;;;
79466;SPS30;68933;49.726;9.226;2024-03-06T09:58:37;23.8;;23.2;21.7;;;;;;
79466;SPS30;68933;49.726;9.226;2024-03-06T10:00:50;24.7;;23.9;22.2;;;;;;
79466;SPS30;68933;49.726;9.226;2024-03-06T10:03:04;24.7;;23.9;22.2;;;;;;
79466;SPS30;68933;49.726;9.226;2024-03-06T10:05:20;39.2;;38.6;36.3;;;;;;
79466;SPS30;68933;49.726;9.226;2024-03-06T10:07:29;39.2;;38.6;36.3;;;;;;
79466;SPS30;68933;49.726;9.226;2024-03-06T10:09:42;39.2;;38.6;36.3;;;;;;
79466;SPS30;68933;49.726;9.226;2024-03-06T10:11:55;31.5;;30.7;28.7;;;;;;
79466;SPS30;68933;49.726;9.226;2024-03-06T10:14:08;31.5;;30.7;28.7;;;;;;
79466;SPS30;68933;49.726;9.226;2024-03-06T10:16:21;24.7;;24.5;23.2;;;;;;
79466;SPS30;68933;49.726;9.226;2024-03-06T10:18:34;24.7;;24.5;23.2;;;;;;
79466;SPS30;68933;49.726;9.226;2024-03-06T10:20:47;25.7;;25.4;24;;;;;;
79466;SPS30;68933;49.726;9.226;2024-03-06T10:23:00;25.7;;25.4;24;;;;;;
79466;SPS30;68933;49.726;9.226;2024-03-06T10:25:13;31.6;;31.2;29.5;;;;;;
79466;SPS30;68933;49.726;9.226;2024-03-06T10:27:26;31.6;;31.2;29.5;;;;;;
79466;SPS30;68933;49.726;9.226;2024-03-06T10:29:39;31.6;;31.2;29.5;;;;;;
79466;SPS30;68933;49.726;9.226;2024-03-06T10:31:53;24;;23.4;22;;;;;;
79466;SPS30;68933;49.726;9.226;2024-03-06T10:34:05;24;;23.4;22;;;;;;
79466;SPS30;68933;49.726;9.226;2024-03-06T10:36:18;24.5;;24.2;22.9;;;;;;
79466;SPS30;68933;49.726;9.226;2024-03-06T10:38:32;24;;24;22.8;;;;;;
79466;SPS30;68933;49.726;9.226;2024-03-06T10:40:44;24;;24;22.8;;;;;;
79466;SPS30;68933;49.726;9.226;2024-03-06T10:42:58;24;;24;22.8;;;;;;
79466;SPS30;68933;49.726;9.226;2024-03-06T10:45:10;24;;24;22.8;;;;;;
79466;SPS30;68933;49.726;9.226;2024-03-06T10:47:23;28.3;;28;26.4;;;;;;
79466;SPS30;68933;49.726;9.226;2024-03-06T10:49:36;28.3;;28;26.4;;;;;;
79466;SPS30;68933;49.726;9.226;2024-03-06T10:51:49;28.3;;28;26.4;;;;;;
79466;SPS30;68933;49.726;9.226;2024-03-06T10:54:03;24.3;;24;22.7;;;;;;
79466;SPS30;68933;49.726;9.226;2024-03-06T10:56:15;24.3;;24;22.7;;;;;;
79466;SPS30;68933;49.726;9.226;2024-03-06T10:58:28;23.4;;23;21.6;;;;;;
79466;SPS30;68933;49.726;9.226;2024-03-06T11:00:42;23.4;;23;21.6;;;;;;
79466;SPS30;68933;49.726;9.226;2024-03-06T11:02:54;26.5;;25.9;24.3;;;;;;
79466;SPS30;68933;49.726;9.226;2024-03-06T11:05:08;26.5;;25.9;24.3;;;;;;
79466;SPS30;68933;49.726;9.226;2024-03-06T11:07:20;26.5;;25.9;24.3;;;;;;
79466;SPS30;68933;49.726;9.226;2024-03-06T11:09:34;30.9;;30.9;29.4;;;;;;
79466;SPS30;68933;49.726;9.226;2024-03-06T11:11:47;30.9;;30.9;29.4;;;;;;
79466;SPS30;68933;49.726;9.226;2024-03-06T11:14:00;24.3;;23.9;22.5;;;;;;
79466;SPS30;68933;49.726;9.226;2024-03-06T11:16:12;24.3;;23.9;22.5;;;;;;
79466;SPS30;68933;49.726;9.226;2024-03-06T11:18:41;24.3;;23.9;22.5;;;;;;
79466;SPS30;68933;49.726;9.226;2024-03-06T11:20:38;24.9;;24.5;23;;;;;;
79466;SPS30;68933;49.726;9.226;2024-03-06T11:23:07;24.9;;24.5;23;;;;;;
79466;SPS30;68933;49.726;9.226;2024-03-06T11:25:04;24.1;;23.8;22.4;;;;;;
79466;SPS30;68933;49.726;9.226;2024-03-06T11:27:17;24.1;;23.8;22.4;;;;;;
79466;SPS30;68933;49.726;9.226;2024-03-06T11:30:02;26.6;;25.6;23.7;;;;;;
79466;SPS30;68933;49.726;9.226;2024-03-06T11:32:00;26.6;;25.6;23.7;;;;;;
79466;SPS30;68933;49.726;9.226;2024-03-06T11:33:56;26.6;;25.6;23.7;;;;;;
79466;SPS30;68933;49.726;9.226;2024-03-06T11:36:17;24.1;;23.8;22.4;;;;;;
79466;SPS30;68933;49.726;9.226;2024-03-06T11:38:22;24.1;;23.8;22.4;;;;;;
79466;SPS30;68933;49.726;9.226;2024-03-06T11:40:42;24.7;;24;22.3;;;;;;
79466;SPS30;68933;49.726;9.226;2024-03-06T11:42:48;24.7;;24;22.3;;;;;;
79466;SPS30;68933;49.726;9.226;2024-03-06T11:45:11;23.7;;23.5;22.3;;;;;;
79466;SPS30;68933;49.726;9.226;2024-03-06T11:47:14;23.7;;23.5;22.3;;;;;;
79466;SPS30;68933;49.726;9.226;2024-03-06T11:49:28;23.7;;23.5;22.3;;;;;;
79466;SPS30;68933;49.726;9.226;2024-03-06T11:51:40;26.4;;26.1;24.6;;;;;;
79466;SPS30;68933;49.726;9.226;2024-03-06T11:53:53;26.4;;26.1;24.6;;;;;;
79466;SPS30;68933;49.726;9.226;2024-03-06T11:56:06;23.5;;23;21.6;;;;;;
79466;SPS30;68933;49.726;9.226;2024-03-06T11:58:19;23.5;;23;21.6;;;;;;
79466;SPS30;68933;49.726;9.226;2024-03-06T12:00:32;28;;27.5;25.8;;;;;;
79466;SPS30;68933;49.726;9.226;2024-03-06T12:02:45;28;;27.5;25.8;;;;;;
79466;SPS30;68933;49.726;9.226;2024-03-06T12:05:01;28;;27.5;25.8;;;;;;
79466;SPS30;68933;49.726;9.226;2024-03-06T12:07:11;27.9;;27.9;26.6;;;;;;
79466;SPS30;68933;49.726;9.226;2024-03-06T12:09:24;27.9;;27.9;26.6;;;;;;
79466;SPS30;68933;49.726;9.226;2024-03-06T12:11:38;26.9;;26.7;25.4;;;;;;
79466;SPS30;68933;49.726;9.226;2024-03-06T12:13:51;26.9;;26.7;25.4;;;;;;
79466;SPS30;68933;49.726;9.226;2024-03-06T12:16:04;24.1;;23.8;22.5;;;;;;
79466;SPS30;68933;49.726;9.226;2024-03-06T12:18:17;24.1;;23.8;22.5;;;;;;
79466;SPS30;68933;49.726;9.226;2024-03-06T12:20:29;24.1;;23.8;22.5;;;;;;
79466;SPS30;68933;49.726;9.226;2024-03-06T12:22:43;24.2;;23.7;22.3;;;;;;
79466;SPS30;68933;49.726;9.226;2024-03-06T12:24:59;24.2;;23.7;22.3;;;;;;